sensor_id;sensor_type;location;lat;lon;timestamp;P1;durP1;ratioP1;P2;durP2;ratioP2
10805;SDS011;5455;53.224;6.000;2022-07-29T00:01:00;1.70;;;0.60;;
10805;SDS011;5455;53.224;6.000;2022-07-29T00:03:27;2.20;;;0.50;;
10805;SDS011;5455;53.224;6.000;2022-07-29T00:05:55;2.70;;;0.67;;
10805;SDS011;5455;53.224;6.000;2022-07-29T00:08:22;2.67;;;0.63;;
10805;SDS011;5455;53.224;6.000;2022-07-29T00:10:50;0.67;;;0.60;;
10805;SDS011;5455;53.224;6.000;2022-07-29T00:13:17;2.83;;;0.40;;
10805;SDS011;5455;53.224;6.000;2022-07-29T00:15:58;3.03;;;0.60;;
10805;SDS011;5455;53.224;6.000;2022-07-29T00:18:30;2.03;;;0.87;;
10805;SDS011;5455;53.224;6.000;2022-07-29T00:20:58;3.07;;;0.57;;
10805;SDS011;5455;53.224;6.000;2022-07-29T00:23:25;1.97;;;0.50;;
10805;SDS011;5455;53.224;6.000;2022-07-29T00:25:52;2.20;;;0.53;;
10805;SDS011;5455;53.224;6.000;2022-07-29T00:28:19;0.93;;;0.50;;
10805;SDS011;5455;53.224;6.000;2022-07-29T00:30:46;2.33;;;0.50;;
10805;SDS011;5455;53.224;6.000;2022-07-29T00:33:13;1.83;;;0.50;;
10805;SDS011;5455;53.224;6.000;2022-07-29T00:35:40;3.13;;;0.60;;
10805;SDS011;5455;53.224;6.000;2022-07-29T00:38:14;2.07;;;0.50;;
10805;SDS011;5455;53.224;6.000;2022-07-29T00:40:43;1.90;;;0.60;;
10805;SDS011;5455;53.224;6.000;2022-07-29T00:43:11;2.10;;;0.50;;
10805;SDS011;5455;53.224;6.000;2022-07-29T00:45:42;1.83;;;0.50;;
10805;SDS011;5455;53.224;6.000;2022-07-29T00:48:09;2.87;;;0.60;;
10805;SDS011;5455;53.224;6.000;2022-07-29T00:50:37;0.70;;;0.40;;
10805;SDS011;5455;53.224;6.000;2022-07-29T00:53:05;0.70;;;0.57;;
10805;SDS011;5455;53.224;6.000;2022-07-29T00:55:33;1.17;;;0.60;;
10805;SDS011;5455;53.224;6.000;2022-07-29T00:58:02;0.60;;;0.40;;
10805;SDS011;5455;53.224;6.000;2022-07-29T01:00:29;2.83;;;0.67;;
10805;SDS011;5455;53.224;6.000;2022-07-29T01:02:56;1.23;;;0.60;;
10805;SDS011;5455;53.224;6.000;2022-07-29T01:05:24;0.43;;;0.40;;
10805;SDS011;5455;53.224;6.000;2022-07-29T01:08:14;1.80;;;0.57;;
10805;SDS011;5455;53.224;6.000;2022-07-29T01:10:42;1.17;;;0.60;;
10805;SDS011;5455;53.224;6.000;2022-07-29T01:13:10;1.20;;;0.50;;
10805;SDS011;5455;53.224;6.000;2022-07-29T01:15:41;2.77;;;0.63;;
10805;SDS011;5455;53.224;6.000;2022-07-29T01:18:20;1.70;;;0.50;;
10805;SDS011;5455;53.224;6.000;2022-07-29T01:21:39;1.97;;;0.67;;
10805;SDS011;5455;53.224;6.000;2022-07-29T01:29:56;2.10;;;0.50;;
10805;SDS011;5455;53.224;6.000;2022-07-29T01:32:26;3.77;;;0.80;;
10805;SDS011;5455;53.224;6.000;2022-07-29T01:37:26;0.70;;;0.40;;
10805;SDS011;5455;53.224;6.000;2022-07-29T01:39:56;1.57;;;0.60;;
10805;SDS011;5455;53.224;6.000;2022-07-29T01:42:44;2.13;;;0.40;;
10805;SDS011;5455;53.224;6.000;2022-07-29T01:48:05;2.47;;;0.60;;
10805;SDS011;5455;53.224;6.000;2022-07-29T01:50:52;1.37;;;0.80;;
10805;SDS011;5455;53.224;6.000;2022-07-29T01:53:25;1.70;;;0.60;;
10805;SDS011;5455;53.224;6.000;2022-07-29T01:56:03;2.13;;;0.70;;
10805;SDS011;5455;53.224;6.000;2022-07-29T01:58:33;1.30;;;0.60;;
10805;SDS011;5455;53.224;6.000;2022-07-29T02:01:03;2.23;;;0.60;;
10805;SDS011;5455;53.224;6.000;2022-07-29T02:03:31;2.20;;;0.60;;
10805;SDS011;5455;53.224;6.000;2022-07-29T02:06:02;2.73;;;0.90;;
10805;SDS011;5455;53.224;6.000;2022-07-29T02:08:29;1.10;;;0.50;;
10805;SDS011;5455;53.224;6.000;2022-07-29T02:10:59;3.87;;;1.03;;
10805;SDS011;5455;53.224;6.000;2022-07-29T02:13:29;2.37;;;0.70;;
10805;SDS011;5455;53.224;6.000;2022-07-29T02:15:58;1.67;;;0.60;;
10805;SDS011;5455;53.224;6.000;2022-07-29T02:18:28;2.13;;;0.50;;
10805;SDS011;5455;53.224;6.000;2022-07-29T02:20:58;1.37;;;0.90;;
10805;SDS011;5455;53.224;6.000;2022-07-29T02:23:26;0.83;;;0.60;;
10805;SDS011;5455;53.224;6.000;2022-07-29T02:25:56;2.83;;;0.70;;
10805;SDS011;5455;53.224;6.000;2022-07-29T02:28:26;1.00;;;0.80;;
10805;SDS011;5455;53.224;6.000;2022-07-29T02:31:00;3.30;;;0.73;;
10805;SDS011;5455;53.224;6.000;2022-07-29T02:33:29;1.40;;;0.90;;
10805;SDS011;5455;53.224;6.000;2022-07-29T02:35:58;3.00;;;0.80;;
10805;SDS011;5455;53.224;6.000;2022-07-29T02:38:28;1.73;;;0.60;;
10805;SDS011;5455;53.224;6.000;2022-07-29T02:41:16;4.37;;;1.00;;
10805;SDS011;5455;53.224;6.000;2022-07-29T02:43:47;2.40;;;0.60;;
10805;SDS011;5455;53.224;6.000;2022-07-29T02:46:19;1.57;;;0.60;;
10805;SDS011;5455;53.224;6.000;2022-07-29T02:48:57;3.23;;;0.70;;
10805;SDS011;5455;53.224;6.000;2022-07-29T02:51:29;1.97;;;0.70;;
10805;SDS011;5455;53.224;6.000;2022-07-29T02:54:10;1.03;;;0.50;;
10805;SDS011;5455;53.224;6.000;2022-07-29T02:56:46;2.07;;;0.60;;
10805;SDS011;5455;53.224;6.000;2022-07-29T02:59:15;1.90;;;0.70;;
10805;SDS011;5455;53.224;6.000;2022-07-29T03:01:48;3.43;;;0.87;;
10805;SDS011;5455;53.224;6.000;2022-07-29T03:04:16;3.20;;;0.90;;
10805;SDS011;5455;53.224;6.000;2022-07-29T03:06:47;2.13;;;0.70;;
10805;SDS011;5455;53.224;6.000;2022-07-29T03:09:16;2.13;;;0.60;;
10805;SDS011;5455;53.224;6.000;2022-07-29T03:11:44;0.60;;;0.50;;
10805;SDS011;5455;53.224;6.000;2022-07-29T03:14:18;1.13;;;0.80;;
10805;SDS011;5455;53.224;6.000;2022-07-29T03:16:47;1.37;;;0.63;;
10805;SDS011;5455;53.224;6.000;2022-07-29T03:19:16;2.57;;;0.80;;
10805;SDS011;5455;53.224;6.000;2022-07-29T03:21:43;2.17;;;0.50;;
10805;SDS011;5455;53.224;6.000;2022-07-29T03:24:23;1.00;;;0.80;;
10805;SDS011;5455;53.224;6.000;2022-07-29T03:26:51;1.63;;;0.80;;
10805;SDS011;5455;53.224;6.000;2022-07-29T03:29:18;2.70;;;0.80;;
10805;SDS011;5455;53.224;6.000;2022-07-29T03:31:45;1.53;;;0.67;;
10805;SDS011;5455;53.224;6.000;2022-07-29T03:34:13;1.50;;;0.63;;
10805;SDS011;5455;53.224;6.000;2022-07-29T03:36:41;1.37;;;0.60;;
10805;SDS011;5455;53.224;6.000;2022-07-29T03:39:08;1.33;;;0.50;;
10805;SDS011;5455;53.224;6.000;2022-07-29T03:41:36;2.33;;;0.70;;
10805;SDS011;5455;53.224;6.000;2022-07-29T03:44:05;2.37;;;0.80;;
10805;SDS011;5455;53.224;6.000;2022-07-29T03:46:34;2.33;;;0.57;;
10805;SDS011;5455;53.224;6.000;2022-07-29T03:49:02;2.90;;;0.60;;
10805;SDS011;5455;53.224;6.000;2022-07-29T03:51:31;1.67;;;0.70;;
10805;SDS011;5455;53.224;6.000;2022-07-29T03:54:01;2.17;;;0.80;;
10805;SDS011;5455;53.224;6.000;2022-07-29T03:56:37;2.63;;;0.57;;
10805;SDS011;5455;53.224;6.000;2022-07-29T03:59:07;1.70;;;0.60;;
10805;SDS011;5455;53.224;6.000;2022-07-29T04:01:34;2.27;;;0.73;;
10805;SDS011;5455;53.224;6.000;2022-07-29T04:04:02;2.53;;;0.60;;
10805;SDS011;5455;53.224;6.000;2022-07-29T04:06:40;1.93;;;0.50;;
10805;SDS011;5455;53.224;6.000;2022-07-29T04:09:08;2.27;;;0.60;;
10805;SDS011;5455;53.224;6.000;2022-07-29T04:11:36;0.80;;;0.50;;
10805;SDS011;5455;53.224;6.000;2022-07-29T04:14:25;2.47;;;0.83;;
10805;SDS011;5455;53.224;6.000;2022-07-29T04:16:52;1.97;;;0.77;;
10805;SDS011;5455;53.224;6.000;2022-07-29T04:19:19;0.50;;;0.40;;
10805;SDS011;5455;53.224;6.000;2022-07-29T04:21:46;2.73;;;0.60;;
10805;SDS011;5455;53.224;6.000;2022-07-29T04:24:13;4.10;;;0.70;;
10805;SDS011;5455;53.224;6.000;2022-07-29T04:26:40;1.27;;;0.50;;
10805;SDS011;5455;53.224;6.000;2022-07-29T04:29:07;0.90;;;0.60;;
10805;SDS011;5455;53.224;6.000;2022-07-29T04:31:34;1.47;;;0.60;;
10805;SDS011;5455;53.224;6.000;2022-07-29T04:34:01;2.53;;;0.73;;
10805;SDS011;5455;53.224;6.000;2022-07-29T04:36:28;5.50;;;0.70;;
10805;SDS011;5455;53.224;6.000;2022-07-29T04:38:55;2.07;;;0.70;;
10805;SDS011;5455;53.224;6.000;2022-07-29T04:41:22;2.00;;;0.70;;
10805;SDS011;5455;53.224;6.000;2022-07-29T04:43:59;5.33;;;0.90;;
10805;SDS011;5455;53.224;6.000;2022-07-29T04:46:32;2.60;;;0.60;;
10805;SDS011;5455;53.224;6.000;2022-07-29T04:49:00;3.80;;;0.73;;
10805;SDS011;5455;53.224;6.000;2022-07-29T04:51:27;4.17;;;0.77;;
10805;SDS011;5455;53.224;6.000;2022-07-29T04:53:54;0.97;;;0.63;;
10805;SDS011;5455;53.224;6.000;2022-07-29T04:56:21;1.40;;;0.63;;
10805;SDS011;5455;53.224;6.000;2022-07-29T04:58:48;1.43;;;0.63;;
10805;SDS011;5455;53.224;6.000;2022-07-29T05:01:15;1.57;;;0.83;;
10805;SDS011;5455;53.224;6.000;2022-07-29T05:03:42;2.07;;;0.60;;
10805;SDS011;5455;53.224;6.000;2022-07-29T05:06:09;1.63;;;0.67;;
10805;SDS011;5455;53.224;6.000;2022-07-29T05:08:36;2.00;;;0.80;;
10805;SDS011;5455;53.224;6.000;2022-07-29T05:11:03;1.13;;;0.60;;
10805;SDS011;5455;53.224;6.000;2022-07-29T05:13:38;1.90;;;0.83;;
10805;SDS011;5455;53.224;6.000;2022-07-29T05:16:12;2.30;;;0.63;;
10805;SDS011;5455;53.224;6.000;2022-07-29T05:18:40;5.37;;;1.03;;
10805;SDS011;5455;53.224;6.000;2022-07-29T05:21:07;0.63;;;0.60;;
10805;SDS011;5455;53.224;6.000;2022-07-29T05:23:34;1.87;;;0.73;;
10805;SDS011;5455;53.224;6.000;2022-07-29T05:26:02;0.97;;;0.60;;
10805;SDS011;5455;53.224;6.000;2022-07-29T05:28:28;1.03;;;0.70;;
10805;SDS011;5455;53.224;6.000;2022-07-29T05:30:59;1.33;;;0.60;;
10805;SDS011;5455;53.224;6.000;2022-07-29T05:33:25;2.07;;;0.70;;
10805;SDS011;5455;53.224;6.000;2022-07-29T05:36:05;3.50;;;0.90;;
10805;SDS011;5455;53.224;6.000;2022-07-29T05:38:36;2.87;;;1.00;;
10805;SDS011;5455;53.224;6.000;2022-07-29T05:41:04;2.97;;;0.80;;
10805;SDS011;5455;53.224;6.000;2022-07-29T05:43:32;1.23;;;0.60;;
10805;SDS011;5455;53.224;6.000;2022-07-29T05:45:59;3.40;;;0.67;;
10805;SDS011;5455;53.224;6.000;2022-07-29T05:48:26;4.43;;;0.87;;
10805;SDS011;5455;53.224;6.000;2022-07-29T05:50:53;1.60;;;0.63;;
10805;SDS011;5455;53.224;6.000;2022-07-29T05:53:21;2.70;;;0.70;;
10805;SDS011;5455;53.224;6.000;2022-07-29T05:55:48;1.87;;;0.70;;
10805;SDS011;5455;53.224;6.000;2022-07-29T05:58:16;2.53;;;0.87;;
10805;SDS011;5455;53.224;6.000;2022-07-29T06:00:43;0.83;;;0.67;;
10805;SDS011;5455;53.224;6.000;2022-07-29T06:03:10;1.40;;;0.60;;
10805;SDS011;5455;53.224;6.000;2022-07-29T06:05:37;3.03;;;0.77;;
10805;SDS011;5455;53.224;6.000;2022-07-29T06:08:04;0.97;;;0.70;;
10805;SDS011;5455;53.224;6.000;2022-07-29T06:10:34;2.47;;;0.63;;
10805;SDS011;5455;53.224;6.000;2022-07-29T06:13:02;2.97;;;0.60;;
10805;SDS011;5455;53.224;6.000;2022-07-29T06:15:29;3.40;;;0.70;;
10805;SDS011;5455;53.224;6.000;2022-07-29T06:17:57;3.43;;;0.80;;
10805;SDS011;5455;53.224;6.000;2022-07-29T06:20:27;1.70;;;0.67;;
10805;SDS011;5455;53.224;6.000;2022-07-29T06:22:57;1.33;;;0.80;;
10805;SDS011;5455;53.224;6.000;2022-07-29T06:25:24;1.27;;;0.70;;
10805;SDS011;5455;53.224;6.000;2022-07-29T06:27:51;3.43;;;0.70;;
10805;SDS011;5455;53.224;6.000;2022-07-29T06:30:18;2.70;;;0.60;;
10805;SDS011;5455;53.224;6.000;2022-07-29T06:32:46;1.43;;;0.90;;
10805;SDS011;5455;53.224;6.000;2022-07-29T06:35:13;4.73;;;0.87;;
10805;SDS011;5455;53.224;6.000;2022-07-29T06:38:00;2.50;;;0.73;;
10805;SDS011;5455;53.224;6.000;2022-07-29T06:40:34;5.97;;;0.80;;
10805;SDS011;5455;53.224;6.000;2022-07-29T06:43:20;2.33;;;0.60;;
10805;SDS011;5455;53.224;6.000;2022-07-29T06:45:48;2.47;;;1.07;;
10805;SDS011;5455;53.224;6.000;2022-07-29T06:48:15;2.40;;;0.93;;
10805;SDS011;5455;53.224;6.000;2022-07-29T06:50:42;1.67;;;0.80;;
10805;SDS011;5455;53.224;6.000;2022-07-29T06:53:09;5.90;;;0.70;;
10805;SDS011;5455;53.224;6.000;2022-07-29T06:55:36;1.30;;;0.67;;
10805;SDS011;5455;53.224;6.000;2022-07-29T06:58:03;2.13;;;0.90;;
10805;SDS011;5455;53.224;6.000;2022-07-29T07:00:30;3.80;;;1.00;;
10805;SDS011;5455;53.224;6.000;2022-07-29T07:02:57;3.53;;;0.70;;
10805;SDS011;5455;53.224;6.000;2022-07-29T07:05:24;2.83;;;0.93;;
10805;SDS011;5455;53.224;6.000;2022-07-29T07:07:51;1.27;;;0.77;;
10805;SDS011;5455;53.224;6.000;2022-07-29T07:10:18;5.53;;;1.00;;
10805;SDS011;5455;53.224;6.000;2022-07-29T07:12:45;2.10;;;1.13;;
10805;SDS011;5455;53.224;6.000;2022-07-29T07:15:12;2.90;;;0.80;;
10805;SDS011;5455;53.224;6.000;2022-07-29T07:17:39;3.17;;;1.00;;
10805;SDS011;5455;53.224;6.000;2022-07-29T07:20:06;2.07;;;0.90;;
10805;SDS011;5455;53.224;6.000;2022-07-29T07:22:34;1.70;;;0.60;;
10805;SDS011;5455;53.224;6.000;2022-07-29T07:25:04;1.47;;;0.73;;
10805;SDS011;5455;53.224;6.000;2022-07-29T07:27:31;2.87;;;0.97;;
10805;SDS011;5455;53.224;6.000;2022-07-29T07:29:58;2.40;;;0.97;;
10805;SDS011;5455;53.224;6.000;2022-07-29T07:32:25;1.27;;;0.77;;
10805;SDS011;5455;53.224;6.000;2022-07-29T07:34:52;2.93;;;1.37;;
10805;SDS011;5455;53.224;6.000;2022-07-29T07:37:20;1.63;;;0.70;;
10805;SDS011;5455;53.224;6.000;2022-07-29T07:39:48;1.83;;;0.50;;
10805;SDS011;5455;53.224;6.000;2022-07-29T07:42:15;2.23;;;0.63;;
10805;SDS011;5455;53.224;6.000;2022-07-29T07:44:42;3.77;;;1.00;;
10805;SDS011;5455;53.224;6.000;2022-07-29T07:47:29;1.27;;;0.77;;
10805;SDS011;5455;53.224;6.000;2022-07-29T07:49:59;2.67;;;1.30;;
10805;SDS011;5455;53.224;6.000;2022-07-29T07:52:26;1.73;;;0.67;;
10805;SDS011;5455;53.224;6.000;2022-07-29T07:54:53;1.77;;;1.00;;
10805;SDS011;5455;53.224;6.000;2022-07-29T07:57:20;4.17;;;0.83;;
10805;SDS011;5455;53.224;6.000;2022-07-29T07:59:48;1.53;;;0.80;;
10805;SDS011;5455;53.224;6.000;2022-07-29T08:02:15;3.03;;;0.93;;
10805;SDS011;5455;53.224;6.000;2022-07-29T08:04:42;1.87;;;0.80;;
10805;SDS011;5455;53.224;6.000;2022-07-29T08:07:09;1.87;;;1.03;;
10805;SDS011;5455;53.224;6.000;2022-07-29T08:09:36;4.03;;;1.00;;
10805;SDS011;5455;53.224;6.000;2022-07-29T08:12:03;1.63;;;1.00;;
10805;SDS011;5455;53.224;6.000;2022-07-29T08:14:32;2.67;;;1.00;;
10805;SDS011;5455;53.224;6.000;2022-07-29T08:17:00;2.23;;;0.93;;
10805;SDS011;5455;53.224;6.000;2022-07-29T08:19:27;4.43;;;1.07;;
10805;SDS011;5455;53.224;6.000;2022-07-29T08:21:54;1.57;;;0.90;;
10805;SDS011;5455;53.224;6.000;2022-07-29T08:24:21;4.20;;;1.10;;
10805;SDS011;5455;53.224;6.000;2022-07-29T08:27:07;3.70;;;0.90;;
10805;SDS011;5455;53.224;6.000;2022-07-29T08:29:54;1.50;;;0.90;;
10805;SDS011;5455;53.224;6.000;2022-07-29T08:32:22;3.13;;;1.07;;
10805;SDS011;5455;53.224;6.000;2022-07-29T08:35:09;3.57;;;1.30;;
10805;SDS011;5455;53.224;6.000;2022-07-29T08:37:36;2.30;;;0.80;;
10805;SDS011;5455;53.224;6.000;2022-07-29T08:40:03;1.87;;;1.00;;
10805;SDS011;5455;53.224;6.000;2022-07-29T08:42:30;1.90;;;0.90;;
10805;SDS011;5455;53.224;6.000;2022-07-29T08:44:57;7.17;;;1.10;;
10805;SDS011;5455;53.224;6.000;2022-07-29T08:47:25;1.13;;;0.80;;
10805;SDS011;5455;53.224;6.000;2022-07-29T08:49:54;4.77;;;0.90;;
10805;SDS011;5455;53.224;6.000;2022-07-29T08:52:21;1.50;;;1.23;;
10805;SDS011;5455;53.224;6.000;2022-07-29T08:54:52;3.33;;;1.07;;
10805;SDS011;5455;53.224;6.000;2022-07-29T08:57:21;3.00;;;1.07;;
10805;SDS011;5455;53.224;6.000;2022-07-29T08:59:52;3.07;;;1.20;;
10805;SDS011;5455;53.224;6.000;2022-07-29T09:02:22;3.30;;;1.10;;
10805;SDS011;5455;53.224;6.000;2022-07-29T09:04:49;3.87;;;1.30;;
10805;SDS011;5455;53.224;6.000;2022-07-29T09:07:17;2.73;;;1.03;;
10805;SDS011;5455;53.224;6.000;2022-07-29T09:09:45;5.20;;;1.03;;
10805;SDS011;5455;53.224;6.000;2022-07-29T09:12:13;5.23;;;1.20;;
10805;SDS011;5455;53.224;6.000;2022-07-29T09:14:55;1.70;;;1.10;;
10805;SDS011;5455;53.224;6.000;2022-07-29T09:20:11;3.20;;;1.23;;
10805;SDS011;5455;53.224;6.000;2022-07-29T09:22:46;3.63;;;1.27;;
10805;SDS011;5455;53.224;6.000;2022-07-29T09:25:32;4.80;;;1.70;;
10805;SDS011;5455;53.224;6.000;2022-07-29T09:28:09;3.60;;;1.10;;
10805;SDS011;5455;53.224;6.000;2022-07-29T09:30:51;2.20;;;1.00;;
10805;SDS011;5455;53.224;6.000;2022-07-29T09:33:20;2.90;;;1.40;;
10805;SDS011;5455;53.224;6.000;2022-07-29T09:38:35;4.17;;;1.20;;
10805;SDS011;5455;53.224;6.000;2022-07-29T09:41:05;2.33;;;0.77;;
10805;SDS011;5455;53.224;6.000;2022-07-29T09:43:34;2.63;;;1.13;;
10805;SDS011;5455;53.224;6.000;2022-07-29T09:46:13;2.93;;;1.30;;
10805;SDS011;5455;53.224;6.000;2022-07-29T09:48:41;2.47;;;1.23;;
10805;SDS011;5455;53.224;6.000;2022-07-29T09:51:20;4.23;;;1.50;;
10805;SDS011;5455;53.224;6.000;2022-07-29T09:56:49;3.63;;;1.20;;
10805;SDS011;5455;53.224;6.000;2022-07-29T09:59:17;3.33;;;1.10;;
10805;SDS011;5455;53.224;6.000;2022-07-29T10:01:45;6.07;;;2.37;;
10805;SDS011;5455;53.224;6.000;2022-07-29T10:04:13;8.60;;;3.17;;
10805;SDS011;5455;53.224;6.000;2022-07-29T10:07:00;6.27;;;1.60;;
10805;SDS011;5455;53.224;6.000;2022-07-29T10:09:31;3.57;;;1.10;;
10805;SDS011;5455;53.224;6.000;2022-07-29T10:12:06;4.60;;;1.40;;
10805;SDS011;5455;53.224;6.000;2022-07-29T10:14:35;1.87;;;1.30;;
10805;SDS011;5455;53.224;6.000;2022-07-29T10:17:04;2.73;;;0.90;;
10805;SDS011;5455;53.224;6.000;2022-07-29T10:19:32;2.57;;;1.20;;
10805;SDS011;5455;53.224;6.000;2022-07-29T10:22:01;3.67;;;1.40;;
10805;SDS011;5455;53.224;6.000;2022-07-29T10:24:30;5.50;;;1.40;;
10805;SDS011;5455;53.224;6.000;2022-07-29T10:26:59;3.03;;;1.90;;
10805;SDS011;5455;53.224;6.000;2022-07-29T10:29:28;3.50;;;2.20;;
10805;SDS011;5455;53.224;6.000;2022-07-29T10:32:13;5.73;;;1.80;;
10805;SDS011;5455;53.224;6.000;2022-07-29T10:35:04;6.50;;;2.17;;
10805;SDS011;5455;53.224;6.000;2022-07-29T10:40:44;5.30;;;2.50;;
10805;SDS011;5455;53.224;6.000;2022-07-29T10:43:46;4.47;;;2.17;;
10805;SDS011;5455;53.224;6.000;2022-07-29T10:46:17;2.83;;;1.70;;
10805;SDS011;5455;53.224;6.000;2022-07-29T10:51:57;4.93;;;3.50;;
10805;SDS011;5455;53.224;6.000;2022-07-29T11:00:26;7.53;;;2.83;;
10805;SDS011;5455;53.224;6.000;2022-07-29T11:02:55;5.50;;;2.03;;
10805;SDS011;5455;53.224;6.000;2022-07-29T11:05:24;6.27;;;1.90;;
10805;SDS011;5455;53.224;6.000;2022-07-29T11:10:50;5.17;;;1.80;;
10805;SDS011;5455;53.224;6.000;2022-07-29T11:16:08;3.37;;;1.43;;
10805;SDS011;5455;53.224;6.000;2022-07-29T11:18:55;7.40;;;2.70;;
10805;SDS011;5455;53.224;6.000;2022-07-29T11:21:40;2.90;;;1.20;;
10805;SDS011;5455;53.224;6.000;2022-07-29T11:24:25;4.03;;;1.20;;
10805;SDS011;5455;53.224;6.000;2022-07-29T11:29:39;5.17;;;1.80;;
10805;SDS011;5455;53.224;6.000;2022-07-29T11:32:15;3.90;;;1.83;;
10805;SDS011;5455;53.224;6.000;2022-07-29T11:34:48;4.53;;;2.27;;
10805;SDS011;5455;53.224;6.000;2022-07-29T11:37:44;3.23;;;1.33;;
10805;SDS011;5455;53.224;6.000;2022-07-29T11:40:20;4.33;;;1.80;;
10805;SDS011;5455;53.224;6.000;2022-07-29T11:42:49;2.37;;;1.43;;
10805;SDS011;5455;53.224;6.000;2022-07-29T11:45:21;4.03;;;1.40;;
10805;SDS011;5455;53.224;6.000;2022-07-29T11:48:16;5.67;;;1.57;;
10805;SDS011;5455;53.224;6.000;2022-07-29T11:50:55;6.63;;;1.43;;
10805;SDS011;5455;53.224;6.000;2022-07-29T11:53:24;4.20;;;1.37;;
10805;SDS011;5455;53.224;6.000;2022-07-29T11:55:55;2.27;;;1.30;;
10805;SDS011;5455;53.224;6.000;2022-07-29T11:58:23;4.77;;;1.33;;
10805;SDS011;5455;53.224;6.000;2022-07-29T12:00:52;3.47;;;1.20;;
10805;SDS011;5455;53.224;6.000;2022-07-29T12:03:25;3.20;;;1.07;;
10805;SDS011;5455;53.224;6.000;2022-07-29T12:06:01;3.77;;;1.13;;
10805;SDS011;5455;53.224;6.000;2022-07-29T12:08:28;4.20;;;1.70;;
10805;SDS011;5455;53.224;6.000;2022-07-29T12:10:56;1.93;;;1.30;;
10805;SDS011;5455;53.224;6.000;2022-07-29T12:13:24;3.03;;;1.30;;
10805;SDS011;5455;53.224;6.000;2022-07-29T12:16:03;2.60;;;1.03;;
10805;SDS011;5455;53.224;6.000;2022-07-29T12:18:31;1.90;;;1.10;;
10805;SDS011;5455;53.224;6.000;2022-07-29T12:20:59;1.90;;;1.43;;
10805;SDS011;5455;53.224;6.000;2022-07-29T12:23:31;5.23;;;1.30;;
10805;SDS011;5455;53.224;6.000;2022-07-29T12:26:03;4.47;;;1.50;;
10805;SDS011;5455;53.224;6.000;2022-07-29T12:28:36;5.90;;;1.60;;
10805;SDS011;5455;53.224;6.000;2022-07-29T12:31:05;3.80;;;1.77;;
10805;SDS011;5455;53.224;6.000;2022-07-29T12:33:34;5.40;;;1.40;;
10805;SDS011;5455;53.224;6.000;2022-07-29T12:36:01;3.10;;;1.73;;
10805;SDS011;5455;53.224;6.000;2022-07-29T12:38:40;3.13;;;1.50;;
10805;SDS011;5455;53.224;6.000;2022-07-29T12:41:07;2.67;;;1.37;;
10805;SDS011;5455;53.224;6.000;2022-07-29T12:43:34;6.93;;;1.90;;
10805;SDS011;5455;53.224;6.000;2022-07-29T12:46:14;4.70;;;1.53;;
10805;SDS011;5455;53.224;6.000;2022-07-29T12:48:42;3.37;;;2.07;;
10805;SDS011;5455;53.224;6.000;2022-07-29T12:51:10;3.77;;;1.30;;
10805;SDS011;5455;53.224;6.000;2022-07-29T12:53:40;2.57;;;1.47;;
10805;SDS011;5455;53.224;6.000;2022-07-29T12:56:14;3.00;;;1.50;;
10805;SDS011;5455;53.224;6.000;2022-07-29T13:01:39;2.83;;;1.87;;
10805;SDS011;5455;53.224;6.000;2022-07-29T13:04:05;6.07;;;1.50;;
10805;SDS011;5455;53.224;6.000;2022-07-29T13:11:48;4.23;;;1.50;;
10805;SDS011;5455;53.224;6.000;2022-07-29T13:14:30;4.33;;;1.30;;
10805;SDS011;5455;53.224;6.000;2022-07-29T13:17:05;4.87;;;1.37;;
10805;SDS011;5455;53.224;6.000;2022-07-29T13:22:10;3.73;;;1.43;;
10805;SDS011;5455;53.224;6.000;2022-07-29T13:24:45;3.70;;;1.43;;
10805;SDS011;5455;53.224;6.000;2022-07-29T13:27:14;7.90;;;1.57;;
10805;SDS011;5455;53.224;6.000;2022-07-29T13:29:42;5.27;;;1.67;;
10805;SDS011;5455;53.224;6.000;2022-07-29T13:32:10;4.20;;;1.63;;
10805;SDS011;5455;53.224;6.000;2022-07-29T13:34:39;7.10;;;1.60;;
10805;SDS011;5455;53.224;6.000;2022-07-29T13:37:07;5.80;;;1.90;;
10805;SDS011;5455;53.224;6.000;2022-07-29T13:39:34;3.83;;;1.60;;
10805;SDS011;5455;53.224;6.000;2022-07-29T13:42:01;4.67;;;2.20;;
10805;SDS011;5455;53.224;6.000;2022-07-29T13:44:28;4.47;;;2.20;;
10805;SDS011;5455;53.224;6.000;2022-07-29T13:46:55;6.63;;;1.93;;
10805;SDS011;5455;53.224;6.000;2022-07-29T13:49:22;4.30;;;1.60;;
10805;SDS011;5455;53.224;6.000;2022-07-29T13:51:50;5.57;;;1.60;;
10805;SDS011;5455;53.224;6.000;2022-07-29T13:54:16;9.43;;;2.20;;
10805;SDS011;5455;53.224;6.000;2022-07-29T13:56:44;6.10;;;2.10;;
10805;SDS011;5455;53.224;6.000;2022-07-29T13:59:12;5.27;;;2.20;;
10805;SDS011;5455;53.224;6.000;2022-07-29T14:01:39;7.93;;;2.20;;
10805;SDS011;5455;53.224;6.000;2022-07-29T14:04:11;3.87;;;1.90;;
10805;SDS011;5455;53.224;6.000;2022-07-29T14:06:38;3.93;;;1.83;;
10805;SDS011;5455;53.224;6.000;2022-07-29T14:09:06;3.27;;;1.97;;
10805;SDS011;5455;53.224;6.000;2022-07-29T14:11:35;3.00;;;1.80;;
10805;SDS011;5455;53.224;6.000;2022-07-29T14:14:04;4.77;;;2.20;;
10805;SDS011;5455;53.224;6.000;2022-07-29T14:16:32;3.73;;;1.67;;
10805;SDS011;5455;53.224;6.000;2022-07-29T14:19:04;2.10;;;1.80;;
10805;SDS011;5455;53.224;6.000;2022-07-29T14:21:32;7.03;;;2.10;;
10805;SDS011;5455;53.224;6.000;2022-07-29T14:24:03;6.07;;;1.90;;
10805;SDS011;5455;53.224;6.000;2022-07-29T14:26:43;7.67;;;2.67;;
10805;SDS011;5455;53.224;6.000;2022-07-29T14:29:12;2.83;;;1.80;;
10805;SDS011;5455;53.224;6.000;2022-07-29T14:31:39;6.50;;;2.43;;
10805;SDS011;5455;53.224;6.000;2022-07-29T14:34:06;4.63;;;2.20;;
10805;SDS011;5455;53.224;6.000;2022-07-29T14:36:33;3.07;;;2.00;;
10805;SDS011;5455;53.224;6.000;2022-07-29T14:39:01;4.97;;;2.03;;
10805;SDS011;5455;53.224;6.000;2022-07-29T14:41:29;4.60;;;2.10;;
10805;SDS011;5455;53.224;6.000;2022-07-29T14:43:56;5.97;;;1.90;;
10805;SDS011;5455;53.224;6.000;2022-07-29T14:46:29;5.00;;;2.20;;
10805;SDS011;5455;53.224;6.000;2022-07-29T14:48:57;3.83;;;2.00;;
10805;SDS011;5455;53.224;6.000;2022-07-29T14:51:25;6.00;;;1.80;;
10805;SDS011;5455;53.224;6.000;2022-07-29T14:53:58;6.87;;;2.13;;
10805;SDS011;5455;53.224;6.000;2022-07-29T14:56:25;3.93;;;2.00;;
10805;SDS011;5455;53.224;6.000;2022-07-29T14:59:02;8.03;;;2.17;;
10805;SDS011;5455;53.224;6.000;2022-07-29T15:01:30;6.20;;;2.10;;
10805;SDS011;5455;53.224;6.000;2022-07-29T15:03:57;4.47;;;1.80;;
10805;SDS011;5455;53.224;6.000;2022-07-29T15:06:25;3.03;;;1.63;;
10805;SDS011;5455;53.224;6.000;2022-07-29T15:08:53;3.73;;;1.33;;
10805;SDS011;5455;53.224;6.000;2022-07-29T15:11:20;2.27;;;1.37;;
10805;SDS011;5455;53.224;6.000;2022-07-29T15:13:48;5.03;;;2.00;;
10805;SDS011;5455;53.224;6.000;2022-07-29T15:16:15;3.80;;;1.67;;
10805;SDS011;5455;53.224;6.000;2022-07-29T15:18:43;2.87;;;1.43;;
10805;SDS011;5455;53.224;6.000;2022-07-29T15:21:10;5.07;;;1.43;;
10805;SDS011;5455;53.224;6.000;2022-07-29T15:23:37;3.33;;;1.67;;
10805;SDS011;5455;53.224;6.000;2022-07-29T15:26:05;4.73;;;1.37;;
10805;SDS011;5455;53.224;6.000;2022-07-29T15:28:32;7.33;;;1.73;;
10805;SDS011;5455;53.224;6.000;2022-07-29T15:30:59;4.87;;;1.67;;
10805;SDS011;5455;53.224;6.000;2022-07-29T15:33:27;4.43;;;1.37;;
10805;SDS011;5455;53.224;6.000;2022-07-29T15:35:55;2.73;;;1.47;;
10805;SDS011;5455;53.224;6.000;2022-07-29T15:38:22;2.80;;;1.43;;
10805;SDS011;5455;53.224;6.000;2022-07-29T15:40:54;4.63;;;1.23;;
10805;SDS011;5455;53.224;6.000;2022-07-29T15:43:21;3.13;;;1.33;;
10805;SDS011;5455;53.224;6.000;2022-07-29T15:45:52;4.10;;;1.40;;
10805;SDS011;5455;53.224;6.000;2022-07-29T15:48:38;2.20;;;1.50;;
10805;SDS011;5455;53.224;6.000;2022-07-29T15:51:06;5.13;;;1.60;;
10805;SDS011;5455;53.224;6.000;2022-07-29T15:53:33;4.73;;;1.50;;
10805;SDS011;5455;53.224;6.000;2022-07-29T15:56:00;5.57;;;1.90;;
10805;SDS011;5455;53.224;6.000;2022-07-29T15:58:29;4.30;;;1.93;;
10805;SDS011;5455;53.224;6.000;2022-07-29T16:00:56;5.90;;;1.80;;
10805;SDS011;5455;53.224;6.000;2022-07-29T16:03:24;2.17;;;1.50;;
10805;SDS011;5455;53.224;6.000;2022-07-29T16:05:51;5.00;;;1.87;;
10805;SDS011;5455;53.224;6.000;2022-07-29T16:08:19;3.70;;;1.87;;
10805;SDS011;5455;53.224;6.000;2022-07-29T16:10:47;5.23;;;1.53;;